Time;durP1;ratioP1;P1;durP2;ratioP2;P2;SDS_P1;SDS_P2;PMS_P1;PMS_P2;Temp;Humidity;BMP_temperature;BMP_pressure;BME280_temperature;BME280_humidity;BME280_pressure;Samples;Min_cycle;Max_cycle;Signal;HPM_P1;HPM_P2
2023/05/02 00:02:16;;;;;;;14.60;8.70;;;;;;;10.58;69.69;100281.80;105181;1257;70096;-46
2023/05/02 00:04:45;;;;;;;12.80;8.10;;;;;;;10.71;69.65;100278.33;105244;1260;70392;-46
2023/05/02 00:07:13;;;;;;;11.60;7.40;;;;;;;10.85;69.47;100274.09;105164;1262;75133;-46
2023/05/02 00:09:41;;;;;;;9.80;7.00;;;;;;;11.00;69.33;100270.31;105111;1256;83379;-46
2023/05/02 00:12:10;;;;;;;11.40;7.20;;;;;;;11.16;69.06;100271.94;105259;1257;73610;-47
2023/05/02 00:14:38;;;;;;;13.40;7.70;;;;;;;11.31;68.76;100269.22;105155;1256;69996;-47
2023/05/02 00:17:06;;;;;;;10.20;6.70;;;;;;;11.43;68.55;100265.59;105198;1260;70012;-48
2023/05/02 00:19:38;;;;;;;9.80;6.10;;;;;;;11.51;68.38;100263.64;105151;1256;74000;-47
2023/05/02 00:22:07;;;;;;;11.10;6.90;;;;;;;11.59;68.15;100265.73;105166;1256;81907;-47
2023/05/02 00:24:35;;;;;;;13.80;7.00;;;;;;;11.66;68.03;100266.36;105239;1256;73939;-46
2023/05/02 00:27:05;;;;;;;11.20;6.70;;;;;;;11.68;68.03;100264.12;105190;1257;70092;-48
2023/05/02 00:29:33;;;;;;;12.10;7.20;;;;;;;11.70;67.89;100268.27;105135;1262;70015;-47
2023/05/02 00:32:01;;;;;;;9.00;5.90;;;;;;;11.71;68.05;100268.90;105172;1260;75130;-48
2023/05/02 00:34:30;;;;;;;9.60;6.00;;;;;;;11.72;67.91;100266.59;105161;1256;82617;-50
2023/05/02 00:36:58;;;;;;;11.10;7.10;;;;;;;11.74;68.09;100268.21;105223;1256;72881;-48
2023/05/02 00:39:26;;;;;;;12.00;6.50;;;;;;;11.73;68.13;100267.44;105176;1258;69922;-48
2023/05/02 00:41:58;;;;;;;9.80;7.10;;;;;;;11.73;68.34;100266.90;105197;1256;70024;-48
2023/05/02 00:44:27;;;;;;;10.60;6.60;;;;;;;11.75;68.36;100265.39;105047;1256;74964;-49
2023/05/02 00:46:55;;;;;;;10.30;6.90;;;;;;;11.79;68.24;100263.84;105136;1256;82364;-48
2023/05/02 00:49:24;;;;;;;8.60;5.80;;;;;;;11.80;68.25;100260.42;105067;1257;72926;-49
2023/05/02 00:51:53;;;;;;;8.70;6.00;;;;;;;11.81;68.34;100265.98;105167;1257;69972;-46
2023/05/02 00:54:21;;;;;;;8.70;6.10;;;;;;;11.82;68.23;100263.67;105118;1262;70045;-48
2023/05/02 00:56:49;;;;;;;10.60;5.70;;;;;;;11.84;67.73;100262.90;105236;1256;74002;-47
2023/05/02 00:59:18;;;;;;;8.80;5.50;;;;;;;11.89;67.66;100262.35;105249;1256;83573;-47
2023/05/02 01:01:52;;;;;;;8.10;5.30;;;;;;;11.94;67.52;100258.46;105151;1256;73668;-48
2023/05/02 01:04:27;;;;;;;8.40;5.60;;;;;;;11.99;67.27;100262.09;105177;1258;69934;-48
2023/05/02 01:07:02;;;;;;;8.60;5.60;;;;;;;12.02;67.24;100261.59;105187;1256;69992;-47
2023/05/02 01:09:59;;;;;;;9.50;6.10;;;;;;;12.07;67.12;100264.20;105131;1256;75039;-47
2023/05/02 01:12:32;;;;;;;7.40;5.30;;;;;;;12.08;66.93;100268.15;105156;1262;83301;-48
2023/05/02 01:15:05;;;;;;;9.90;5.80;;;;;;;12.11;66.68;100270.31;105072;1262;74081;-47
2023/05/02 01:17:34;;;;;;;7.30;6.00;;;;;;;12.12;66.66;100273.09;105216;1256;69987;-49
2023/05/02 01:20:06;;;;;;;8.40;5.50;;;;;;;12.12;66.53;100272.36;105128;1256;70007;-47
2023/05/02 01:22:37;;;;;;;7.20;5.40;;;;;;;12.13;66.39;100271.79;105199;1257;73968;-47
2023/05/02 01:25:29;;;;;;;8.00;5.30;;;;;;;12.14;66.51;100272.09;105166;1257;82612;-47
2023/05/02 01:28:05;;;;;;;7.00;5.00;;;;;;;12.16;66.54;100268.86;105143;1260;72170;-48
2023/05/02 01:30:35;;;;;;;6.00;4.80;;;;;;;12.16;66.17;100267.61;105180;1256;70006;-48
2023/05/02 01:33:04;;;;;;;7.80;4.90;;;;;;;12.18;66.32;100269.98;105199;1261;70336;-47
2023/05/02 01:35:34;;;;;;;9.40;5.50;;;;;;;12.20;66.32;100269.02;105253;1261;73958;-46
2023/05/02 01:38:03;;;;;;;9.90;5.50;;;;;;;12.20;66.33;100269.70;105226;1256;82652;-47
2023/05/02 01:40:32;;;;;;;7.50;5.60;;;;;;;12.20;66.72;100272.36;105153;1258;71814;-47
2023/05/02 01:43:03;;;;;;;7.10;5.40;;;;;;;12.17;66.48;100273.02;105120;1256;69990;-47
2023/05/02 01:45:35;;;;;;;7.90;6.00;;;;;;;12.15;66.51;100274.30;105138;1256;70097;-48
2023/05/02 01:48:05;;;;;;;10.10;5.50;;;;;;;12.15;66.43;100274.17;105225;1260;74137;-48
2023/05/02 01:50:35;;;;;;;8.50;6.00;;;;;;;12.15;66.55;100276.79;105116;1262;83594;-47
2023/05/02 01:53:03;;;;;;;6.90;5.70;;;;;;;12.15;67.15;100282.39;105203;1261;73114;-49
2023/05/02 01:55:34;;;;;;;9.20;5.50;;;;;;;12.13;67.91;100285.82;105111;1256;70007;-48
2023/05/02 01:58:04;;;;;;;9.20;5.00;;;;;;;12.09;68.32;100287.02;105187;1257;69992;-50
2023/05/02 02:00:33;;;;;;;10.20;5.50;;;;;;;12.05;68.99;100289.98;105140;1262;74857;-48
2023/05/02 02:03:06;;;;;;;7.20;4.90;;;;;;;12.00;69.06;100290.39;105220;1256;83600;-48
2023/05/02 02:05:35;;;;;;;7.40;5.20;;;;;;;11.96;69.42;100286.38;105197;1257;73799;-47
2023/05/02 02:08:03;;;;;;;6.90;5.10;;;;;;;11.93;69.77;100288.28;105058;1256;70285;-48
2023/05/02 02:10:36;;;;;;;7.70;5.20;;;;;;;11.91;69.54;100288.71;105244;1256;69958;-48
2023/05/02 02:13:14;;;;;;;7.80;5.70;;;;;;;11.88;69.06;100289.70;105175;1261;73969;-48
2023/05/02 02:15:46;;;;;;;9.40;6.00;;;;;;;11.89;69.04;100294.95;105127;1256;82583;-48
2023/05/02 02:18:20;;;;;;;8.90;6.40;;;;;;;11.88;68.68;100297.58;105145;1261;73735;-48
2023/05/02 02:20:49;;;;;;;11.40;7.30;;;;;;;11.87;68.42;100301.70;105108;1262;69960;-48
2023/05/02 02:23:19;;;;;;;9.00;6.60;;;;;;;11.84;68.47;100307.90;105112;1256;69913;-47
2023/05/02 02:25:48;;;;;;;10.20;7.50;;;;;;;11.81;68.64;100314.14;105240;1256;74600;-47
2023/05/02 02:28:16;;;;;;;11.40;7.90;;;;;;;11.77;68.55;100323.08;105248;1260;83806;-47
2023/05/02 02:30:45;;;;;;;9.30;5.30;;;;;;;11.72;68.80;100329.23;105156;1256;72652;-48
2023/05/02 02:33:13;;;;;;;8.60;4.50;;;;;;;11.73;69.00;100332.35;105159;1256;69968;-47
2023/05/02 02:35:45;;;;;;;9.50;4.80;;;;;;;11.74;69.39;100325.98;105190;1262;69978;-47
2023/05/02 02:38:27;;;;;;;5.10;4.20;;;;;;;11.75;69.71;100320.20;105215;1256;74845;-47
2023/05/02 02:41:01;;;;;;;9.00;4.70;;;;;;;11.72;70.00;100315.06;105060;1261;82929;-47
2023/05/02 02:43:33;;;;;;;7.60;4.60;;;;;;;11.68;70.44;100316.33;105195;1256;73787;-48
2023/05/02 02:46:14;;;;;;;7.30;4.70;;;;;;;11.62;70.40;100321.81;105122;1256;70194;-47
2023/05/02 02:48:46;;;;;;;7.60;4.40;;;;;;;11.53;70.56;100328.11;105213;1261;70001;-47
2023/05/02 02:51:29;;;;;;;8.60;4.10;;;;;;;11.44;70.90;100337.25;105188;1261;75048;-47
2023/05/02 02:54:05;;;;;;;9.10;4.90;;;;;;;11.32;71.56;100337.73;105189;1260;83443;-48
2023/05/02 02:57:13;;;;;;;6.10;4.20;;;;;;;11.19;71.80;100341.42;105190;1262;72822;-46
2023/05/02 02:59:50;;;;;;;6.20;4.80;;;;;;;11.04;72.52;100346.94;105166;1258;70050;-47
2023/05/02 03:02:21;;;;;;;6.80;4.70;;;;;;;10.94;72.92;100351.34;105216;1256;69994;-48
2023/05/02 03:04:50;;;;;;;6.60;4.30;;;;;;;10.88;73.22;100356.48;105222;1261;75021;-48
2023/05/02 03:07:18;;;;;;;6.00;4.40;;;;;;;10.82;73.75;100360.89;105134;1262;83184;-48
2023/05/02 03:09:47;;;;;;;7.10;4.20;;;;;;;10.78;73.95;100366.13;105094;1262;73743;-48
2023/05/02 03:12:18;;;;;;;5.90;4.00;;;;;;;10.74;74.37;100368.20;105138;1257;70006;-48
2023/05/02 03:14:47;;;;;;;5.40;4.30;;;;;;;10.70;74.73;100366.77;105105;1256;69932;-48
2023/05/02 03:17:17;;;;;;;5.50;4.30;;;;;;;10.68;75.05;100367.73;105224;1260;74829;-48
2023/05/02 03:19:46;;;;;;;6.20;4.20;;;;;;;10.66;75.49;100367.63;105246;1260;83247;-48
2023/05/02 03:22:14;;;;;;;6.80;4.70;;;;;;;10.66;75.62;100375.33;105176;1256;72835;-48
2023/05/02 03:24:42;;;;;;;6.30;4.20;;;;;;;10.65;76.01;100377.09;105091;1262;69993;-48
2023/05/02 03:27:11;;;;;;;7.00;4.10;;;;;;;10.65;76.23;100379.52;105169;1256;69888;-49
2023/05/02 03:29:40;;;;;;;7.20;4.20;;;;;;;10.66;76.32;100384.91;105251;1260;75091;-49
2023/05/02 03:32:09;;;;;;;7.00;4.40;;;;;;;10.67;76.59;100386.64;105131;1259;83556;-49
2023/05/02 03:34:40;;;;;;;6.00;3.80;;;;;;;10.67;76.74;100390.48;105155;1262;73700;-48
2023/05/02 03:37:09;;;;;;;8.50;4.40;;;;;;;10.69;76.90;100390.55;105178;1255;69949;-49
2023/05/02 03:39:37;;;;;;;5.90;4.20;;;;;;;10.72;77.39;100393.27;105146;1258;69931;-48
2023/05/02 03:42:05;;;;;;;6.20;4.00;;;;;;;10.75;77.58;100396.46;105110;1257;74814;-49
2023/05/02 03:44:34;;;;;;;7.40;4.00;;;;;;;10.78;77.52;100396.02;105053;1256;83486;-49
2023/05/02 03:47:02;;;;;;;8.10;4.60;;;;;;;10.80;77.77;100402.23;105026;1259;74089;-48
2023/05/02 03:49:33;;;;;;;6.60;3.60;;;;;;;10.82;77.83;100402.15;105088;1262;70176;-48
2023/05/02 03:52:02;;;;;;;6.70;4.40;;;;;;;10.85;77.75;100402.77;105180;1256;70577;-48
2023/05/02 03:54:32;;;;;;;6.10;3.90;;;;;;;10.87;77.87;100404.57;105233;1260;74957;-48
2023/05/02 03:57:02;;;;;;;6.70;4.00;;;;;;;10.91;77.92;100410.05;105176;1257;82867;-48
2023/05/02 03:59:34;;;;;;;7.60;4.10;;;;;;;10.94;77.91;100407.98;105199;1256;72857;-47
2023/05/02 04:02:06;;;;;;;6.30;4.00;;;;;;;10.98;78.00;100405.23;105196;1257;69911;-46
2023/05/02 04:04:39;;;;;;;5.90;4.00;;;;;;;10.99;78.25;100408.67;105240;1262;69923;-47
2023/05/02 04:07:16;;;;;;;5.90;4.10;;;;;;;11.02;78.16;100412.93;105189;1262;74913;-48
2023/05/02 04:09:47;;;;;;;4.40;3.60;;;;;;;11.06;78.14;100422.92;105158;1257;83638;-47
2023/05/02 04:12:16;;;;;;;6.00;4.50;;;;;;;11.08;78.64;100419.49;105156;1256;72755;-49
2023/05/02 04:14:47;;;;;;;7.80;4.00;;;;;;;11.07;78.40;100422.54;105095;1262;70118;-48
2023/05/02 04:17:17;;;;;;;7.00;4.30;;;;;;;11.08;78.88;100422.14;105226;1262;69850;-47
2023/05/02 04:19:48;;;;;;;9.10;4.50;;;;;;;11.07;78.79;100435.27;105216;1262;75179;-47
2023/05/02 04:22:17;;;;;;;5.80;4.40;;;;;;;11.08;78.41;100437.02;105197;1261;83294;-47
2023/05/02 04:24:51;;;;;;;4.80;3.60;;;;;;;11.10;78.64;100438.14;105158;1261;74168;-46
2023/05/02 04:27:19;;;;;;;5.90;4.30;;;;;;;11.14;78.93;100440.60;105134;1260;69999;-46
2023/05/02 04:29:49;;;;;;;5.20;3.70;;;;;;;11.17;79.14;100448.01;105214;1261;70609;-46
2023/05/02 04:32:19;;;;;;;7.00;4.00;;;;;;;11.19;78.90;100450.90;105134;1257;74825;-47
2023/05/02 04:34:48;;;;;;;5.10;3.90;;;;;;;11.24;78.98;100451.95;105175;1256;83929;-47
2023/05/02 04:37:17;;;;;;;6.70;4.10;;;;;;;11.28;79.49;100456.34;105162;1262;72464;-47
2023/05/02 04:39:46;;;;;;;5.40;3.80;;;;;;;11.31;79.51;100455.84;105248;1256;69935;-47
2023/05/02 04:42:18;;;;;;;6.70;4.00;;;;;;;11.35;79.82;100461.65;105083;1257;70032;-47
2023/05/02 04:44:54;;;;;;;6.20;3.50;;;;;;;11.41;79.36;100465.46;105189;1256;74721;-47
2023/05/02 04:47:23;;;;;;;6.70;3.60;;;;;;;11.46;79.13;100468.58;105164;1257;83487;-47
2023/05/02 04:49:51;;;;;;;6.70;3.60;;;;;;;11.53;78.86;100470.23;105161;1262;73669;-46
2023/05/02 04:52:19;;;;;;;5.70;3.50;;;;;;;11.60;78.68;100470.10;105048;1257;70284;-46
2023/05/02 04:54:47;;;;;;;5.60;4.10;;;;;;;11.65;78.54;100470.78;105056;1262;70010;-47
2023/05/02 04:57:16;;;;;;;5.60;3.70;;;;;;;11.72;78.36;100472.62;105074;1262;74805;-47
2023/05/02 04:59:48;;;;;;;5.70;4.30;;;;;;;11.77;77.96;100477.82;105200;1257;82390;-46
2023/05/02 05:02:17;;;;;;;7.80;4.00;;;;;;;11.79;77.90;100480.20;105154;1257;73745;-48
2023/05/02 05:04:46;;;;;;;7.40;4.40;;;;;;;11.82;78.02;100482.53;105158;1256;70060;-47
2023/05/02 05:07:15;;;;;;;8.60;4.30;;;;;;;11.87;77.93;100484.63;105187;1256;69948;-46
2023/05/02 05:09:45;;;;;;;6.20;4.30;;;;;;;11.91;77.59;100487.65;105236;1258;74571;-45
2023/05/02 05:12:14;;;;;;;7.10;4.60;;;;;;;11.94;77.48;100489.27;105156;1257;82038;-46
2023/05/02 05:14:43;;;;;;;5.70;4.30;;;;;;;11.98;77.37;100491.90;105068;1262;72753;-47
2023/05/02 05:17:12;;;;;;;7.60;4.70;;;;;;;11.99;77.33;100494.45;105170;1256;70258;-47
2023/05/02 05:19:41;;;;;;;6.20;4.50;;;;;;;12.02;77.33;100499.08;105248;1261;69935;-46
2023/05/02 05:22:09;;;;;;;5.00;3.90;;;;;;;12.05;77.11;100508.40;105283;1262;74123;-47
2023/05/02 05:24:38;;;;;;;12.00;4.80;;;;;;;12.09;77.17;100515.95;105242;1256;83518;-46
2023/05/02 05:27:07;;;;;;;8.00;4.40;;;;;;;12.11;76.97;100515.33;105168;1261;71877;-46
2023/05/02 05:29:35;;;;;;;7.40;4.50;;;;;;;12.15;77.12;100522.20;105144;1262;69983;-46
2023/05/02 05:32:04;;;;;;;5.10;3.90;;;;;;;12.18;77.07;100523.81;105201;1257;70046;-47
2023/05/02 05:34:34;;;;;;;6.80;4.20;;;;;;;12.23;76.93;100522.03;105141;1262;74360;-48
2023/05/02 05:37:02;;;;;;;7.60;4.80;;;;;;;12.27;77.15;100527.44;105160;1261;83450;-47
2023/05/02 05:39:31;;;;;;;6.70;4.40;;;;;;;12.34;76.98;100527.34;105179;1261;72798;-48
2023/05/02 05:42:01;;;;;;;5.50;4.30;;;;;;;12.42;76.84;100531.55;105176;1257;69948;-47
2023/05/02 05:44:30;;;;;;;6.50;4.30;;;;;;;12.47;77.17;100534.13;105236;1256;69881;-48
2023/05/02 05:46:59;;;;;;;6.50;4.20;;;;;;;12.53;76.76;100534.45;105213;1261;74978;-46
2023/05/02 05:49:28;;;;;;;6.00;4.70;;;;;;;12.57;77.01;100533.75;105172;1256;83166;-47
2023/05/02 05:51:57;;;;;;;8.50;4.70;;;;;;;12.64;76.84;100536.39;105124;1258;72685;-46
2023/05/02 05:54:25;;;;;;;5.80;4.30;;;;;;;12.72;76.91;100540.27;105254;1257;70482;-46
2023/05/02 05:56:53;;;;;;;9.20;4.90;;;;;;;12.78;76.49;100543.34;105060;1261;69996;-47
2023/05/02 05:59:22;;;;;;;6.60;4.60;;;;;;;12.86;76.51;100546.66;105180;1261;73864;-47
2023/05/02 06:01:50;;;;;;;6.10;4.50;;;;;;;12.93;76.27;100552.13;105213;1262;83324;-46
2023/05/02 06:04:21;;;;;;;7.60;5.10;;;;;;;13.00;76.16;100551.48;105152;1260;73967;-46
2023/05/02 06:06:52;;;;;;;7.50;4.60;;;;;;;13.09;76.30;100550.38;105172;1256;70022;-46
2023/05/02 06:09:20;;;;;;;6.70;4.50;;;;;;;13.21;76.35;100548.96;105120;1257;70101;-46
2023/05/02 06:11:49;;;;;;;7.70;4.50;;;;;;;13.31;76.18;100549.74;105193;1261;73847;-46
2023/05/02 06:14:17;;;;;;;7.30;4.70;;;;;;;13.43;76.36;100550.95;105175;1262;83398;-47
2023/05/02 06:16:47;;;;;;;;;;;;;;;13.57;75.95;100551.90;105175;1261;73880;-46
2023/05/02 06:19:16;;;;;;;7.30;5.00;;;;;;;13.67;75.59;100555.11;105024;1262;70281;-46
2023/05/02 06:21:44;;;;;;;9.50;4.80;;;;;;;13.76;75.47;100556.42;105168;1260;69942;-47
2023/05/02 06:24:12;;;;;;;9.20;5.40;;;;;;;13.87;75.37;100559.09;105183;1261;75269;-46
2023/05/02 06:26:40;;;;;;;7.40;5.40;;;;;;;13.93;74.75;100563.88;105119;1265;83218;-49
2023/05/02 06:29:09;;;;;;;8.60;5.70;;;;;;;13.98;74.51;100566.25;105306;1262;73219;-46
2023/05/02 06:31:37;;;;;;;7.50;5.30;;;;;;;14.01;74.23;100571.76;105360;1262;70032;-50
2023/05/02 06:34:05;;;;;;;7.70;4.90;;;;;;;14.05;74.09;100572.43;105246;1256;70134;-47
2023/05/02 06:36:33;;;;;;;6.60;4.70;;;;;;;14.11;74.00;100580.41;105393;1262;74026;-49
2023/05/02 06:39:02;;;;;;;9.00;5.40;;;;;;;14.17;73.75;100582.20;105106;1264;82568;-47
2023/05/02 06:41:30;;;;;;;9.00;5.80;;;;;;;14.25;73.62;100587.07;105134;1262;72271;-51
2023/05/02 06:43:58;;;;;;;7.20;5.00;;;;;;;14.34;73.52;100591.05;105104;1262;69948;-48
2023/05/02 06:46:30;;;;;;;6.50;5.30;;;;;;;14.45;73.54;100593.65;105288;1258;69920;-48
2023/05/02 06:48:59;;;;;;;6.60;4.60;;;;;;;14.56;73.50;100594.90;105252;1260;74815;-47
2023/05/02 06:51:27;;;;;;;7.00;5.00;;;;;;;14.66;73.21;100594.88;105194;1260;83394;-50
2023/05/02 06:53:55;;;;;;;7.10;4.90;;;;;;;14.76;72.70;100592.46;105209;1262;73823;-47
2023/05/02 06:56:24;;;;;;;6.70;5.10;;;;;;;14.83;72.07;100598.59;105340;1257;70007;-49
2023/05/02 06:58:53;;;;;;;7.80;5.00;;;;;;;14.89;71.76;100601.64;105390;1256;70086;-52
2023/05/02 07:01:21;;;;;;;5.80;4.40;;;;;;;14.98;71.57;100607.36;105252;1260;74863;-49
2023/05/02 07:03:49;;;;;;;7.40;5.40;;;;;;;15.10;71.67;100613.40;105243;1257;83486;-48
2023/05/02 07:06:18;;;;;;;7.60;4.90;;;;;;;15.17;71.14;100615.13;105445;1260;73349;-48
2023/05/02 07:08:46;;;;;;;7.60;5.10;;;;;;;15.23;70.78;100618.89;105293;1260;69979;-47
2023/05/02 07:11:14;;;;;;;9.40;5.00;;;;;;;15.28;70.50;100617.20;105221;1257;69888;-48
2023/05/02 07:13:43;;;;;;;7.40;4.60;;;;;;;15.34;70.16;100617.23;105388;1260;75391;-48
2023/05/02 07:16:11;;;;;;;6.60;5.00;;;;;;;15.37;69.77;100619.86;105541;1260;84046;-48
2023/05/02 07:18:41;;;;;;;7.20;5.50;;;;;;;15.43;69.69;100618.55;105241;1260;71774;-48
2023/05/02 07:21:09;;;;;;;6.90;5.00;;;;;;;15.50;69.87;100617.45;105482;1260;70559;-49
2023/05/02 07:23:37;;;;;;;8.30;5.50;;;;;;;15.58;69.23;100620.34;105294;1257;69833;-48
2023/05/02 07:26:06;;;;;;;6.40;4.30;;;;;;;15.62;68.64;100623.46;105286;1260;73916;-48
2023/05/02 07:28:34;;;;;;;7.10;4.60;;;;;;;15.69;68.55;100623.16;105324;1261;84944;-47
2023/05/02 07:31:02;;;;;;;8.00;5.20;;;;;;;15.71;68.21;100626.20;105247;1261;73792;-49
2023/05/02 07:33:30;;;;;;;8.60;5.40;;;;;;;15.71;68.18;100628.31;105308;1260;69992;-51
2023/05/02 07:36:00;;;;;;;9.70;5.90;;;;;;;15.68;68.02;100633.92;105226;1256;69897;-49
2023/05/02 07:38:28;;;;;;;7.60;5.00;;;;;;;15.62;67.71;100632.65;105289;1256;74889;-48
2023/05/02 07:40:58;;;;;;;11.30;5.90;;;;;;;15.65;67.29;100635.87;105242;1262;83406;-47
2023/05/02 07:43:26;;;;;;;7.00;5.10;;;;;;;15.65;66.63;100636.55;105347;1261;73667;-47
2023/05/02 07:45:55;;;;;;;6.90;5.20;;;;;;;15.65;66.40;100640.63;105396;1260;70105;-52
2023/05/02 07:48:23;;;;;;;9.20;5.90;;;;;;;15.69;66.60;100646.54;105259;1261;69997;-48
2023/05/02 07:50:54;;;;;;;10.60;5.60;;;;;;;15.70;65.78;100645.96;105287;1262;74941;-48
2023/05/02 07:53:23;;;;;;;9.30;5.60;;;;;;;15.68;65.27;100647.83;105262;1259;83405;-46
2023/05/02 07:55:51;;;;;;;6.70;5.20;;;;;;;15.64;64.84;100649.30;105420;1258;73724;-50
2023/05/02 07:58:19;;;;;;;7.50;5.40;;;;;;;15.64;64.70;100649.83;105264;1260;70019;-48
2023/05/02 08:00:47;;;;;;;9.70;6.00;;;;;;;15.67;64.67;100653.88;105239;1259;69896;-47
2023/05/02 08:03:16;;;;;;;9.00;5.90;;;;;;;15.71;64.61;100656.13;105311;1259;73182;-48
2023/05/02 08:05:45;;;;;;;7.10;5.50;;;;;;;15.76;64.03;100657.27;105382;1261;83311;-47
2023/05/02 08:08:13;;;;;;;7.30;5.60;;;;;;;15.81;63.86;100660.00;105329;1258;72581;-47
2023/05/02 08:10:42;;;;;;;6.70;5.30;;;;;;;15.87;63.43;100658.95;105201;1256;69974;-47
2023/05/02 08:13:11;;;;;;;8.70;5.70;;;;;;;15.99;63.43;100662.91;105433;1259;70098;-47
2023/05/02 08:15:39;;;;;;;8.50;5.20;;;;;;;16.10;63.01;100663.19;105497;1259;73497;-48
2023/05/02 08:18:07;;;;;;;9.40;6.10;;;;;;;16.21;62.92;100668.90;105318;1257;83484;-46
2023/05/02 08:20:35;;;;;;;9.60;6.00;;;;;;;16.34;62.59;100672.55;105239;1257;73459;-49
2023/05/02 08:23:04;;;;;;;7.20;5.40;;;;;;;16.43;61.91;100672.95;105394;1260;69991;-47
2023/05/02 08:25:32;;;;;;;11.70;5.90;;;;;;;16.54;61.68;100673.54;105440;1260;70018;-47
2023/05/02 08:28:00;;;;;;;9.20;6.10;;;;;;;16.70;61.79;100673.15;105340;1258;74587;-47
2023/05/02 08:30:28;;;;;;;9.60;6.80;;;;;;;16.91;61.99;100677.09;105271;1260;83872;-47
2023/05/02 08:32:57;;;;;;;9.20;5.50;;;;;;;17.10;61.59;100680.68;105263;1260;72834;-47
2023/05/02 08:35:25;;;;;;;10.50;6.10;;;;;;;17.27;61.65;100685.20;105269;1259;70216;-47
2023/05/02 08:37:53;;;;;;;9.80;6.20;;;;;;;17.42;61.37;100687.77;105178;1260;69984;-47
2023/05/02 08:40:22;;;;;;;9.30;6.30;;;;;;;17.56;61.07;100691.30;105149;1257;74654;-47
2023/05/02 08:43:05;;;;;;;9.10;6.40;;;;;;;17.61;60.73;100693.66;105122;1260;83506;-49
2023/05/02 08:45:36;;;;;;;7.40;6.40;;;;;;;17.70;60.53;100700.59;105163;1260;73160;-47
2023/05/02 08:48:12;;;;;;;7.90;6.10;;;;;;;17.73;60.07;100701.98;105110;1260;69983;-46
2023/05/02 08:50:44;;;;;;;10.90;6.50;;;;;;;17.74;60.17;100703.48;105152;1261;69996;-45
2023/05/02 08:53:16;;;;;;;8.40;6.30;;;;;;;17.82;60.31;100705.46;105159;1264;74061;-45
2023/05/02 08:55:45;;;;;;;51.90;8.40;;;;;;;17.91;60.04;100707.77;105104;1269;83689;-45
2023/05/02 08:58:13;;;;;;;9.90;6.80;;;;;;;17.99;59.56;100710.98;105028;1262;72753;-45
2023/05/02 09:00:44;;;;;;;7.30;6.20;;;;;;;18.08;59.49;100714.15;105094;1259;69966;-46
2023/05/02 09:03:32;;;;;;;12.60;6.30;;;;;;;18.16;59.13;100719.44;105197;1261;69961;-45
2023/05/02 09:06:08;;;;;;;9.00;6.60;;;;;;;18.26;58.92;100718.80;105161;1263;75064;-45
2023/05/02 09:08:37;;;;;;;8.50;6.30;;;;;;;18.39;58.87;100718.31;105182;1266;82416;-45
2023/05/02 09:11:06;;;;;;;9.40;6.40;;;;;;;18.53;58.62;100721.50;105185;1265;74222;-46
2023/05/02 09:13:37;;;;;;;9.50;5.90;;;;;;;18.64;58.22;100723.80;105143;1263;69982;-47
2023/05/02 09:16:09;;;;;;;9.40;5.80;;;;;;;18.75;57.81;100729.48;105155;1261;69962;-46
2023/05/02 09:18:43;;;;;;;7.80;5.90;;;;;;;18.89;57.52;100727.33;105121;1262;73887;-47
2023/05/02 09:21:15;;;;;;;8.60;6.30;;;;;;;19.01;57.12;100729.17;105102;1263;83651;-46
2023/05/02 09:23:55;;;;;;;8.20;6.10;;;;;;;19.11;56.66;100733.41;105127;1262;72784;-47
2023/05/02 09:26:31;;;;;;;7.20;6.20;;;;;;;19.12;56.17;100736.05;105134;1258;70047;-47
2023/05/02 09:29:01;;;;;;;9.20;6.10;;;;;;;19.18;56.17;100737.60;105158;1257;69879;-45
2023/05/02 09:31:33;;;;;;;11.00;6.60;;;;;;;19.22;55.92;100740.85;105108;1261;72870;-46
2023/05/02 09:34:15;;;;;;;9.50;6.30;;;;;;;19.25;55.89;100743.83;104809;1266;85423;-46
2023/05/02 09:36:50;;;;;;;8.20;5.80;;;;;;;19.27;54.95;100748.48;104802;1268;74058;-47
2023/05/02 09:39:24;;;;;;;7.90;5.80;;;;;;;19.29;54.52;100748.89;104761;1267;70182;-46
2023/05/02 09:41:53;;;;;;;7.20;5.30;;;;;;;19.24;53.77;100753.66;104843;1265;70199;-45
2023/05/02 09:44:23;;;;;;;6.40;5.40;;;;;;;19.26;53.75;100754.43;104925;1266;73781;-46
2023/05/02 09:46:53;;;;;;;7.30;5.50;;;;;;;19.37;54.03;100754.73;104901;1266;83395;-45
2023/05/02 09:49:43;;;;;;;7.50;6.00;;;;;;;19.47;53.47;100759.31;104882;1266;73955;-48
2023/05/02 09:52:14;;;;;;;7.40;5.90;;;;;;;19.48;53.04;100765.46;104942;1266;70047;-48
2023/05/02 09:54:45;;;;;;;8.10;5.60;;;;;;;19.40;52.59;100763.70;105241;1258;69994;-46
2023/05/02 09:57:13;;;;;;;7.60;6.10;;;;;;;19.44;52.98;100768.20;105224;1257;75340;-47
2023/05/02 09:59:56;;;;;;;9.70;6.30;;;;;;;19.60;53.00;100774.26;105205;1260;82461;-46
2023/05/02 10:02:25;;;;;;;9.20;6.40;;;;;;;19.73;52.77;100780.45;105165;1261;73054;-46
2023/05/02 10:04:54;;;;;;;9.40;6.60;;;;;;;19.73;52.68;100781.18;105240;1257;69882;-48
2023/05/02 10:07:24;;;;;;;7.10;6.30;;;;;;;19.76;52.79;100784.65;105099;1262;69908;-46
2023/05/02 10:09:53;;;;;;;9.40;6.80;;;;;;;19.80;52.83;100783.66;104963;1262;75026;-47
2023/05/02 10:12:23;;;;;;;8.30;6.60;;;;;;;19.81;52.79;100785.21;105217;1260;83902;-48
2023/05/02 10:14:59;;;;;;;8.80;6.90;;;;;;;19.90;52.87;100786.17;105191;1257;72708;-46
2023/05/02 10:17:36;;;;;;;8.40;7.30;;;;;;;19.90;52.15;100784.61;105122;1263;69876;-46
2023/05/02 10:20:06;;;;;;;9.70;6.40;;;;;;;19.93;52.42;100790.25;109099;1256;67577;-47
2023/05/02 10:22:35;;;;;;;6.60;5.90;;;;;;;19.93;51.76;100796.48;107389;1256;74895;-47
2023/05/02 10:25:04;;;;;;;8.70;6.40;;;;;;;19.90;51.68;100801.81;109072;1256;83398;-48
2023/05/02 10:27:32;;;;;;;7.80;6.60;;;;;;;19.97;51.70;100802.40;109093;1256;73753;-47
2023/05/02 10:30:03;;;;;;;9.10;6.40;;;;;;;20.08;51.54;100803.16;109087;1256;68017;-47
2023/05/02 10:32:32;;;;;;;8.30;6.00;;;;;;;20.23;51.47;100803.90;109110;1258;68066;-47
2023/05/02 10:35:04;;;;;;;7.00;6.10;;;;;;;20.36;51.15;100807.09;105524;1257;75128;-47
2023/05/02 10:37:35;;;;;;;7.20;5.50;;;;;;;20.55;51.10;100809.27;105226;1258;83141;-45
2023/05/02 10:40:05;;;;;;;7.80;5.50;;;;;;;20.82;50.87;100808.21;105232;1258;72697;-47
2023/05/02 10:42:52;;;;;;;8.70;5.60;;;;;;;21.03;50.44;100803.61;105068;1257;69897;-47
2023/05/02 10:45:29;;;;;;;9.30;5.80;;;;;;;21.15;49.82;100803.24;105247;1257;70012;-45
2023/05/02 10:48:19;;;;;;;7.30;5.40;;;;;;;21.35;49.73;100804.08;105223;1259;73889;-47
2023/05/02 10:51:00;;;;;;;9.80;6.10;;;;;;;21.59;49.21;100815.98;105154;1261;82526;-46
2023/05/02 10:53:35;;;;;;;10.20;5.70;;;;;;;21.54;48.57;100809.03;105148;1258;73783;-48
2023/05/02 10:56:24;;;;;;;6.50;5.30;;;;;;;21.65;48.57;100807.52;105150;1260;69942;-47
2023/05/02 10:59:25;;;;;;;7.60;4.30;;;;;;;21.87;48.67;100809.33;105128;1262;70014;-47
2023/05/02 11:01:54;;;;;;;6.50;4.30;;;;;;;21.89;47.11;100813.63;105082;1258;75313;-46
2023/05/02 11:04:23;;;;;;;10.80;8.50;;;;;;;21.85;46.54;100810.26;105119;1262;83384;-47
2023/05/02 11:07:01;;;;;;;8.40;6.20;;;;;;;21.94;46.66;100809.16;105162;1261;73779;-46
2023/05/02 11:09:31;;;;;;;5.70;4.10;;;;;;;22.05;46.04;100809.92;105074;1259;69996;-47
2023/05/02 11:12:00;;;;;;;6.20;3.80;;;;;;;22.09;45.95;100807.63;105177;1258;69893;-47
2023/05/02 11:14:38;;;;;;;6.70;5.40;;;;;;;22.16;45.37;100810.61;105178;1260;74939;-48
2023/05/02 11:17:07;;;;;;;6.10;4.60;;;;;;;22.06;44.67;100815.31;105094;1261;83168;-48
2023/05/02 11:19:42;;;;;;;;;;;;;;;21.86;43.90;100816.20;105159;1258;72696;-47
2023/05/02 11:22:16;;;;;;;6.40;4.80;;;;;;;21.81;44.21;100817.09;105023;1265;70134;-46
2023/05/02 11:24:49;;;;;;;8.90;4.70;;;;;;;21.78;44.15;100820.38;105082;1264;70389;-47
2023/05/02 11:27:29;;;;;;;5.50;4.10;;;;;;;21.83;44.56;100820.00;105084;1258;75052;-47
2023/05/02 11:30:08;;;;;;;5.30;3.90;;;;;;;21.99;44.59;100825.35;105090;1263;82583;-47
2023/05/02 11:32:50;;;;;;;7.40;4.80;;;;;;;22.12;44.30;100826.77;105087;1258;72200;-47
2023/05/02 11:35:26;;;;;;;9.00;6.00;;;;;;;22.19;43.92;100824.31;104960;1258;155238;-50